Time;durP1;ratioP1;P1;durP2;ratioP2;P2;SDS_P1;SDS_P2;PMS_P1;PMS_P2;Temp;Humidity;BMP_temperature;BMP_pressure;BME280_temperature;BME280_humidity;BME280_pressure;Samples;Min_cycle;Max_cycle;Signal;HPM_P1;HPM_P2
2024/02/28 00:00:51;;;;;;;19.93;14.50;;;;;;;7.59;98.26;153308.63;5068736;28;20530;-78
2024/02/28 00:03:18;;;;;;;19.60;14.10;;;;;;;7.58;98.03;153306.03;5081077;28;20462;-78
2024/02/28 00:05:45;;;;;;;19.47;14.37;;;;;;;7.59;97.92;153308.63;5081868;28;20496;-78
2024/02/28 00:08:12;;;;;;;21.23;14.37;;;;;;;7.56;97.92;153302.19;5086892;28;20448;-79
2024/02/28 00:10:38;;;;;;;20.80;14.77;;;;;;;7.58;98.02;153307.34;5088911;28;20433;-78
2024/02/28 00:13:05;;;;;;;19.30;14.00;;;;;;;7.59;98.04;153309.94;5068759;28;20458;-78
2024/02/28 00:15:31;;;;;;;18.10;13.03;;;;;;;7.60;97.88;153311.25;5084091;28;20833;-78
2024/02/28 00:17:59;;;;;;;18.80;13.17;;;;;;;7.58;98.29;153306.03;5085118;28;20452;-78
2024/02/28 00:20:27;;;;;;;18.67;14.63;;;;;;;7.60;98.23;153311.25;5067623;28;20449;-78
2024/02/28 00:22:53;;;;;;;19.97;14.13;;;;;;;7.58;98.04;153307.34;5084726;28;20476;-78
2024/02/28 00:25:20;;;;;;;18.60;14.80;;;;;;;7.59;98.35;153308.63;5092945;28;20453;-77
2024/02/28 00:27:46;;;;;;;20.30;15.23;;;;;;;7.60;98.38;153311.25;5087065;28;20480;-77
2024/02/28 00:30:13;;;;;;;20.00;15.13;;;;;;;7.57;98.18;153303.47;5084575;28;20862;-76
2024/02/28 00:32:40;;;;;;;21.47;14.70;;;;;;;7.55;97.17;153298.28;5091278;28;20445;-78
2024/02/28 00:35:08;;;;;;;20.37;14.13;;;;;;;7.53;96.73;153294.44;5078513;28;20494;-78
2024/02/28 00:37:35;;;;;;;21.97;15.07;;;;;;;7.52;97.45;153290.56;5084575;28;20472;-78
2024/02/28 00:40:01;;;;;;;19.80;15.10;;;;;;;7.49;97.70;153282.81;5083974;28;20544;-78
2024/02/28 00:42:28;;;;;;;20.00;14.50;;;;;;;7.52;97.81;153290.56;5085145;28;20449;-78
2024/02/28 00:44:54;;;;;;;18.50;13.60;;;;;;;7.51;98.27;153287.97;5086046;28;20871;-78
2024/02/28 00:47:21;;;;;;;19.70;14.70;;;;;;;7.51;98.19;153287.97;5083688;28;20452;-78
2024/02/28 00:49:47;;;;;;;20.87;14.80;;;;;;;7.50;98.51;153285.38;5087357;28;20498;-78
2024/02/28 00:52:15;;;;;;;20.50;14.60;;;;;;;7.49;98.83;153284.13;5088524;28;20482;-78
2024/02/28 00:54:42;;;;;;;17.93;13.70;;;;;;;7.47;99.22;153277.63;5078351;28;20498;-78
2024/02/28 00:57:08;;;;;;;20.70;15.40;;;;;;;7.48;99.29;153280.22;5074019;28;21005;-78
2024/02/28 00:59:34;;;;;;;17.60;13.10;;;;;;;7.47;99.59;153277.63;5087243;28;20437;-78
2024/02/28 01:02:03;;;;;;;18.07;13.23;;;;;;;7.46;99.65;153275.06;5086493;28;20472;-78
2024/02/28 01:04:29;;;;;;;20.20;14.97;;;;;;;7.44;99.54;153269.91;5083707;28;20473;-78
2024/02/28 01:06:56;;;;;;;19.83;14.63;;;;;;;7.41;99.70;153263.44;5088381;28;20498;-78
2024/02/28 01:09:24;;;;;;;24.67;15.47;;;;;;;7.40;99.68;153259.53;5088594;28;21031;-78
2024/02/28 01:11:50;;;;;;;21.27;15.63;;;;;;;7.42;99.70;153266.00;5083406;28;20453;-78
2024/02/28 01:14:17;;;;;;;21.90;14.63;;;;;;;7.43;99.83;153268.59;5085226;28;20958;-78
2024/02/28 01:16:43;;;;;;;18.87;13.60;;;;;;;7.44;99.88;153269.91;5085259;28;20471;-78
2024/02/28 01:19:10;;;;;;;20.27;15.17;;;;;;;7.43;99.91;153268.59;5088280;28;20437;-79
2024/02/28 01:21:36;;;;;;;20.20;15.73;;;;;;;7.42;99.76;153264.69;5085229;28;20517;-78
2024/02/28 01:24:03;;;;;;;21.37;15.20;;;;;;;7.41;99.56;153263.44;5089000;28;20470;-78
2024/02/28 01:26:31;;;;;;;21.10;14.90;;;;;;;7.40;98.79;153259.53;5098918;28;20447;-78
2024/02/28 01:28:57;;;;;;;20.07;14.17;;;;;;;7.38;98.57;153254.41;5100663;28;20445;-78
2024/02/28 01:31:24;;;;;;;20.33;14.77;;;;;;;7.35;97.83;153249.25;5085317;28;20463;-78
2024/02/28 01:33:50;;;;;;;20.63;14.33;;;;;;;7.35;97.40;153247.94;5082039;28;20828;-78
2024/02/28 01:36:17;;;;;;;18.90;14.87;;;;;;;7.33;97.48;153244.03;5088929;28;20506;-78
2024/02/28 01:38:43;;;;;;;24.40;14.47;;;;;;;7.34;97.61;153246.63;5079961;28;20457;-78
2024/02/28 01:41:10;;;;;;;21.23;14.40;;;;;;;7.34;97.83;153246.63;5087843;28;20452;-78
2024/02/28 01:43:38;;;;;;;19.97;14.47;;;;;;;7.33;97.65;153244.03;5078519;28;20469;-78
2024/02/28 01:46:16;;;;;;;21.17;14.13;;;;;;;7.32;97.65;153241.47;5087967;28;20521;-78
2024/02/28 01:48:43;;;;;;;19.90;13.80;;;;;;;7.32;97.92;153240.19;5084740;28;20443;-78
2024/02/28 01:51:10;;;;;;;21.47;14.53;;;;;;;7.32;98.28;153241.47;5092003;28;20445;-78
2024/02/28 01:53:36;;;;;;;22.77;15.60;;;;;;;7.32;98.63;153240.19;5089080;28;21115;-78
2024/02/28 01:56:03;;;;;;;21.90;15.20;;;;;;;7.32;98.31;153241.47;5086105;28;20456;-79
2024/02/28 01:58:30;;;;;;;21.23;14.60;;;;;;;7.30;97.88;153235.03;5081921;28;20503;-78
2024/02/28 02:01:00;;;;;;;17.30;13.80;;;;;;;7.28;97.93;153231.13;5069276;28;20473;-78
2024/02/28 02:03:26;;;;;;;22.37;15.20;;;;;;;7.28;98.24;153231.13;5084460;28;20468;-79
2024/02/28 02:05:53;;;;;;;25.40;15.60;;;;;;;7.29;98.49;153233.72;5086041;28;20457;-79
2024/02/28 02:08:19;;;;;;;18.67;14.87;;;;;;;7.28;98.67;153231.13;5091415;28;20464;-78
2024/02/28 02:10:46;;;;;;;20.60;15.37;;;;;;;7.27;98.41;153228.56;5091394;28;20429;-79
2024/02/28 02:13:13;;;;;;;20.53;14.50;;;;;;;7.27;98.26;153228.56;5083472;28;20496;-78
2024/02/28 02:15:41;;;;;;;25.00;16.43;;;;;;;7.24;98.22;153220.81;5086120;28;20546;-78
2024/02/28 02:18:08;;;;;;;20.20;13.53;;;;;;;7.24;98.23;153220.81;5084756;28;20461;-78
2024/02/28 02:20:37;;;;;;;20.47;13.93;;;;;;;7.23;97.86;153218.22;5080066;28;20460;-78
2024/02/28 02:23:05;;;;;;;20.70;13.90;;;;;;;7.21;98.22;153213.06;5086034;28;20446;-78
2024/02/28 02:25:32;;;;;;;24.97;16.50;;;;;;;7.17;97.97;153202.75;5101572;28;20452;-78
2024/02/28 02:27:59;;;;;;;19.93;14.10;;;;;;;7.17;98.30;153201.47;5072420;28;20437;-79
2024/02/28 02:30:25;;;;;;;21.77;13.43;;;;;;;7.16;98.47;153200.16;5088567;28;21255;-78
2024/02/28 02:32:52;;;;;;;17.97;13.30;;;;;;;7.15;98.56;153196.25;5102863;28;20542;-78
2024/02/28 02:35:18;;;;;;;22.97;15.00;;;;;;;7.17;98.02;153201.47;5061560;28;20482;-78
2024/02/28 02:37:47;;;;;;;18.87;14.00;;;;;;;7.14;97.62;153193.72;5084761;28;20507;-78
2024/02/28 02:40:16;;;;;;;20.70;14.00;;;;;;;7.11;97.19;153187.25;5081803;28;20499;-78
2024/02/28 02:42:42;;;;;;;20.50;15.43;;;;;;;7.11;97.90;153185.94;5088220;28;20494;-78
2024/02/28 02:45:10;;;;;;;20.03;14.37;;;;;;;7.11;98.05;153187.25;5088223;28;20477;-78
2024/02/28 02:47:36;;;;;;;21.07;15.17;;;;;;;7.10;98.25;153184.66;5088570;28;20473;-78
2024/02/28 02:50:03;;;;;;;22.13;14.53;;;;;;;7.09;98.16;153182.09;5082632;28;20446;-78
2024/02/28 02:52:30;;;;;;;22.07;14.60;;;;;;;7.09;98.10;153182.09;5086155;28;20846;-78
2024/02/28 02:54:56;;;;;;;22.83;16.13;;;;;;;7.08;98.27;153179.50;5085395;28;20489;-78
2024/02/28 02:57:24;;;;;;;23.67;14.97;;;;;;;7.07;97.87;153176.91;5080669;28;20461;-78
2024/02/28 02:59:51;;;;;;;22.50;15.03;;;;;;;7.07;98.02;153176.91;5067931;28;20437;-78
2024/02/28 03:02:17;;;;;;;23.53;15.83;;;;;;;7.06;97.81;153173.03;5080038;28;20467;-78
2024/02/28 03:04:44;;;;;;;19.13;14.17;;;;;;;7.06;98.29;153173.03;5064690;28;20522;-78
2024/02/28 03:07:10;;;;;;;21.40;14.77;;;;;;;7.04;98.11;153169.16;5094611;28;20460;-78
2024/02/28 03:09:37;;;;;;;21.97;14.87;;;;;;;7.01;98.40;153161.44;5073812;28;20482;-78
2024/02/28 03:12:04;;;;;;;19.00;14.40;;;;;;;7.04;98.51;153169.16;5102677;28;20444;-78
2024/02/28 03:14:32;;;;;;;25.37;15.13;;;;;;;7.05;98.73;153170.44;5106161;27;20542;-78
2024/02/28 03:16:58;;;;;;;20.30;13.03;;;;;;;7.06;98.76;153173.03;5109597;28;20436;-78
2024/02/28 03:19:25;;;;;;;23.20;16.00;;;;;;;7.05;99.20;153171.75;5109508;28;20930;-79
2024/02/28 03:21:51;;;;;;;23.10;14.80;;;;;;;7.05;99.00;153171.75;5090877;28;20448;-78
2024/02/28 03:24:18;;;;;;;21.10;15.00;;;;;;;7.07;99.45;153176.91;5083593;28;20526;-78
2024/02/28 03:26:44;;;;;;;22.47;15.97;;;;;;;7.06;99.31;153174.34;5105096;27;20542;-78
2024/02/28 03:29:11;;;;;;;22.50;16.43;;;;;;;7.07;99.32;153176.91;5114908;27;20954;-78
2024/02/28 03:31:39;;;;;;;24.60;16.33;;;;;;;7.07;99.56;153176.91;5109478;27;20452;-78
2024/02/28 03:34:05;;;;;;;20.73;15.53;;;;;;;7.08;99.78;153178.19;5103386;28;20444;-78
2024/02/28 03:36:32;;;;;;;21.87;14.90;;;;;;;7.05;99.63;153170.44;5084092;28;20452;-78
2024/02/28 03:38:59;;;;;;;20.30;13.83;;;;;;;7.04;99.87;153169.16;5090183;28;21152;-78
2024/02/28 03:41:25;;;;;;;22.13;14.50;;;;;;;7.01;100.00;153160.13;5103437;28;20460;-78
2024/02/28 03:43:52;;;;;;;19.27;14.30;;;;;;;7.04;100.00;153169.16;5091131;28;20568;-78
2024/02/28 03:46:18;;;;;;;21.83;15.27;;;;;;;7.00;100.00;153158.84;5101351;28;20626;-78
2024/02/28 03:48:46;;;;;;;21.57;16.47;;;;;;;7.05;100.00;153171.75;5103440;28;20551;-77
2024/02/28 03:51:13;;;;;;;24.10;15.83;;;;;;;7.05;100.00;153171.75;5087947;28;20452;-78
2024/02/28 03:53:41;;;;;;;21.90;13.70;;;;;;;7.00;100.00;153158.84;5109253;28;20539;-77
2024/02/28 03:56:08;;;;;;;24.07;15.83;;;;;;;6.99;100.00;153156.25;5064584;28;20794;-78
2024/02/28 03:58:34;;;;;;;25.17;17.17;;;;;;;6.99;100.00;153156.25;5066276;28;20987;-77
2024/02/28 04:01:00;;;;;;;22.40;15.80;;;;;;;6.98;100.00;153153.69;5090413;28;20534;-77
2024/02/28 04:03:27;;;;;;;23.90;16.07;;;;;;;6.97;100.00;153149.78;5087745;28;20949;-78
2024/02/28 04:05:54;;;;;;;22.93;14.90;;;;;;;6.94;100.00;153143.34;5107126;28;20212;-78
2024/02/28 04:08:21;;;;;;;22.67;16.07;;;;;;;6.93;100.00;153139.47;5089313;28;20458;-78
2024/02/28 04:10:49;;;;;;;24.40;16.57;;;;;;;6.92;100.00;153138.19;5109384;28;20958;-78
2024/02/28 04:13:15;;;;;;;23.23;15.80;;;;;;;6.91;100.00;153134.34;5091243;28;20428;-78
2024/02/28 04:15:42;;;;;;;22.90;15.73;;;;;;;6.90;100.00;153133.03;5105245;28;20448;-78
2024/02/28 04:18:08;;;;;;;21.80;14.20;;;;;;;6.87;100.00;153125.28;5079977;28;20428;-77
2024/02/28 04:20:35;;;;;;;23.97;14.27;;;;;;;6.89;100.00;153130.44;5074398;28;20553;-77
2024/02/28 04:23:03;;;;;;;23.70;14.87;;;;;;;6.90;100.00;153133.03;5082598;28;20464;-77
2024/02/28 04:25:30;;;;;;;20.47;14.17;;;;;;;6.92;100.00;153136.88;5086348;27;20464;-77
2024/02/28 04:27:56;;;;;;;20.03;14.50;;;;;;;6.88;100.00;153126.59;5096889;28;20952;-77
2024/02/28 04:30:23;;;;;;;19.40;15.17;;;;;;;6.89;100.00;153130.44;5090637;28;20448;-77
2024/02/28 04:32:50;;;;;;;22.40;15.17;;;;;;;6.87;100.00;153125.28;5072457;28;20965;-78
2024/02/28 04:35:18;;;;;;;19.70;14.60;;;;;;;6.85;100.00;153118.81;5081422;28;20479;-77
2024/02/28 04:37:45;;;;;;;24.40;15.20;;;;;;;6.81;100.00;153109.78;5082507;28;20472;-77
2024/02/28 04:40:13;;;;;;;21.90;14.17;;;;;;;6.80;100.00;153107.22;5093857;28;20432;-77
2024/02/28 04:42:40;;;;;;;19.80;14.77;;;;;;;6.78;100.00;153102.03;5086831;28;20533;-77
2024/02/28 04:45:07;;;;;;;19.80;14.20;;;;;;;6.74;100.00;153093.03;5078401;28;20465;-77
2024/02/28 04:47:34;;;;;;;25.40;15.43;;;;;;;6.76;100.00;153096.88;5107044;28;20460;-77
2024/02/28 04:50:00;;;;;;;19.30;14.00;;;;;;;6.76;100.00;153096.88;5087218;28;20558;-77
2024/02/28 04:52:27;;;;;;;26.33;16.93;;;;;;;6.75;100.00;153094.31;5097333;28;20501;-77
2024/02/28 04:54:53;;;;;;;19.57;13.77;;;;;;;6.77;100.00;153098.19;5091571;28;20494;-77
2024/02/28 04:57:21;;;;;;;21.80;15.13;;;;;;;6.72;100.00;153086.56;5106541;28;20456;-77
2024/02/28 04:59:48;;;;;;;21.73;14.57;;;;;;;6.73;100.00;153090.41;5090820;28;20544;-77
2024/02/28 05:02:15;;;;;;;20.30;15.27;;;;;;;6.75;100.00;153094.31;5062269;28;20453;-77
2024/02/28 05:04:41;;;;;;;22.70;14.30;;;;;;;6.74;100.00;153093.03;5104070;28;20475;-77
2024/02/28 05:07:11;;;;;;;21.67;16.10;;;;;;;6.69;100.00;153080.13;5107404;28;20477;-77
2024/02/28 05:09:37;;;;;;;20.07;14.20;;;;;;;6.68;100.00;153077.50;5072326;28;20555;-77
2024/02/28 05:12:04;;;;;;;21.53;14.90;;;;;;;6.66;100.00;153071.06;5106895;28;20455;-77
2024/02/28 05:14:32;;;;;;;21.60;16.20;;;;;;;6.67;100.00;153073.66;5109561;28;20448;-77
2024/02/28 05:16:59;;;;;;;19.73;14.50;;;;;;;6.62;100.00;153062.03;5107674;28;20571;-77
2024/02/28 05:19:26;;;;;;;22.17;14.47;;;;;;;6.61;100.00;153058.16;5110090;28;20458;-77
2024/02/28 05:21:52;;;;;;;19.97;14.20;;;;;;;6.59;100.00;153054.28;5106227;28;20550;-77
2024/02/28 05:24:19;;;;;;;24.67;16.60;;;;;;;6.60;100.00;153055.56;5071232;28;20467;-77
2024/02/28 05:26:45;;;;;;;20.43;15.00;;;;;;;6.61;100.00;153058.16;5100750;28;20460;-77
2024/02/28 05:29:12;;;;;;;23.60;14.87;;;;;;;6.60;100.00;153055.56;5091532;28;20497;-77
2024/02/28 05:31:40;;;;;;;20.67;15.30;;;;;;;6.58;100.00;153050.41;5114026;27;20460;-77
2024/02/28 05:34:06;;;;;;;21.07;15.00;;;;;;;6.51;100.00;153033.63;5109996;27;20455;-77
2024/02/28 05:36:33;;;;;;;21.13;14.70;;;;;;;6.51;100.00;153032.38;5093454;28;20807;-77
2024/02/28 05:39:01;;;;;;;19.37;14.33;;;;;;;6.50;100.00;153029.75;5093427;28;20501;-77
2024/02/28 05:41:28;;;;;;;19.17;14.70;;;;;;;6.46;100.00;153019.47;5097123;28;20540;-77
2024/02/28 05:43:55;;;;;;;22.07;14.97;;;;;;;6.46;100.00;153020.72;5085200;28;20453;-77
2024/02/28 05:46:22;;;;;;;19.70;14.20;;;;;;;6.44;100.00;153014.28;5089247;28;20460;-77
2024/02/28 05:48:50;;;;;;;22.20;15.73;;;;;;;6.44;100.00;153015.56;5108879;28;20457;-77
2024/02/28 05:51:17;;;;;;;19.73;14.43;;;;;;;6.43;100.00;153011.72;5107484;28;20460;-77
2024/02/28 05:53:43;;;;;;;18.57;13.23;;;;;;;6.42;100.00;153009.13;5087285;28;20553;-77
2024/02/28 05:56:14;;;;;;;20.73;15.30;;;;;;;6.43;100.00;153011.72;5106029;28;20466;-77
2024/02/28 05:58:41;;;;;;;24.57;15.77;;;;;;;6.43;100.00;153013.03;5085211;28;20450;-77
2024/02/28 06:01:08;;;;;;;21.07;15.33;;;;;;;6.44;100.00;153015.56;5087488;28;20492;-77
2024/02/28 06:03:34;;;;;;;17.97;13.50;;;;;;;6.44;100.00;153015.56;5113359;27;20448;-77
2024/02/28 06:06:04;;;;;;;23.50;15.83;;;;;;;6.44;100.00;153015.56;5110733;27;21270;-77
2024/02/28 06:08:32;;;;;;;19.67;13.27;;;;;;;6.44;100.00;153014.28;5110193;27;20446;-78
2024/02/28 06:10:58;;;;;;;21.70;16.47;;;;;;;6.48;100.00;153024.63;5110524;27;20550;-77
2024/02/28 06:13:25;;;;;;;22.97;15.77;;;;;;;6.48;100.00;153025.91;5098092;27;20467;-78
2024/02/28 06:15:51;;;;;;;21.17;14.90;;;;;;;6.46;100.00;153019.47;5094203;27;20444;-78
2024/02/28 06:18:18;;;;;;;20.00;14.37;;;;;;;6.45;100.00;153016.88;5092485;27;20474;-78
2024/02/28 06:20:44;;;;;;;21.50;15.10;;;;;;;6.42;100.00;153009.13;5079619;27;20463;-78
2024/02/28 06:23:12;;;;;;;22.10;15.53;;;;;;;6.43;100.00;153011.72;5097733;27;20451;-78
2024/02/28 06:25:39;;;;;;;22.30;15.47;;;;;;;6.40;100.00;153003.97;5113232;27;20475;-78
2024/02/28 06:28:06;;;;;;;20.60;15.57;;;;;;;6.41;100.00;153006.53;5088807;27;20467;-77
2024/02/28 06:30:33;;;;;;;20.07;14.47;;;;;;;6.39;100.00;153001.38;5079977;27;20452;-78
2024/02/28 06:33:00;;;;;;;24.97;15.57;;;;;;;6.41;100.00;153006.53;5114095;27;20460;-78
2024/02/28 06:35:27;;;;;;;23.30;15.60;;;;;;;6.40;100.00;153005.28;5097067;27;21174;-77
2024/02/28 06:37:54;;;;;;;23.67;15.90;;;;;;;6.40;100.00;153005.28;5112406;27;20456;-78
2024/02/28 06:40:22;;;;;;;20.00;14.10;;;;;;;6.39;100.00;153001.38;5109312;27;20444;-77
2024/02/28 06:42:48;;;;;;;20.10;14.53;;;;;;;6.35;100.00;152991.06;5080429;27;20968;-77
2024/02/28 06:45:15;;;;;;;23.97;16.50;;;;;;;6.41;100.00;153006.53;5113443;27;21110;-77
2024/02/28 06:47:43;;;;;;;20.77;14.93;;;;;;;6.41;100.00;153006.53;5113935;27;20467;-78
2024/02/28 06:50:10;;;;;;;22.03;14.60;;;;;;;6.41;100.00;153006.53;5114467;27;20444;-77
2024/02/28 06:52:36;;;;;;;20.43;14.57;;;;;;;6.41;100.00;153006.53;5097428;27;20891;-77
2024/02/28 06:55:09;;;;;;;23.17;16.70;;;;;;;6.42;100.00;153009.13;5113384;27;20873;-78
2024/02/28 06:57:38;;;;;;;20.37;15.63;;;;;;;6.41;100.00;153007.81;5113846;27;21054;-77
2024/02/28 07:00:08;;;;;;;20.37;14.27;;;;;;;6.42;100.00;153009.13;5113974;27;20474;-78
2024/02/28 07:02:34;;;;;;;20.37;15.80;;;;;;;6.39;100.00;153001.38;5082076;27;20445;-77
2024/02/28 07:05:01;;;;;;;23.27;15.67;;;;;;;6.41;100.00;153006.53;5078311;27;22344;-78
2024/02/28 07:07:27;;;;;;;22.87;16.77;;;;;;;6.39;100.00;153001.38;5112243;27;20452;-78
2024/02/28 07:09:54;;;;;;;22.87;16.20;;;;;;;6.40;100.00;153003.97;5114053;27;20447;-78
2024/02/28 07:12:20;;;;;;;23.60;15.67;;;;;;;6.38;100.00;153000.06;5099900;27;20479;-78
2024/02/28 07:14:48;;;;;;;21.30;15.70;;;;;;;6.38;100.00;152998.81;5114323;27;20448;-78
2024/02/28 07:17:15;;;;;;;22.33;15.13;;;;;;;6.35;100.00;152991.06;5091677;27;20484;-77
2024/02/28 07:19:41;;;;;;;24.43;16.30;;;;;;;6.31;100.00;152980.72;5109827;27;20452;-77
2024/02/28 07:22:08;;;;;;;23.00;15.27;;;;;;;6.33;100.00;152987.16;5094281;27;20892;-77
2024/02/28 07:24:34;;;;;;;24.17;16.57;;;;;;;6.35;100.00;152991.06;5113100;27;20462;-76
2024/02/28 07:27:01;;;;;;;27.27;16.30;;;;;;;6.38;100.00;152998.81;5080328;27;20463;-76
2024/02/28 07:29:28;;;;;;;21.23;14.73;;;;;;;6.41;100.00;153006.53;5082635;27;20454;-76
2024/02/28 07:31:56;;;;;;;21.37;15.57;;;;;;;6.39;100.00;153001.38;5102570;27;20452;-76
2024/02/28 07:34:23;;;;;;;22.60;15.17;;;;;;;6.33;100.00;152985.91;5098880;27;20467;-76
2024/02/28 07:36:50;;;;;;;20.57;14.97;;;;;;;6.35;100.00;152991.06;5118345;27;20451;-76
2024/02/28 07:39:16;;;;;;;21.70;15.20;;;;;;;6.39;100.00;153001.38;5117025;27;20511;-76
2024/02/28 07:41:43;;;;;;;23.03;16.17;;;;;;;6.41;100.00;153007.81;5114747;27;20456;-77
2024/02/28 07:44:10;;;;;;;21.70;14.63;;;;;;;6.38;100.00;152998.81;5111331;27;20448;-77
2024/02/28 07:46:37;;;;;;;22.93;15.87;;;;;;;6.39;100.00;153002.66;5095285;27;20509;-76
2024/02/28 07:49:05;;;;;;;22.77;15.40;;;;;;;6.40;100.00;153003.97;5095263;27;20508;-79
2024/02/28 07:51:31;;;;;;;24.00;15.30;;;;;;;6.41;100.00;153007.81;5114118;27;20459;-76
2024/02/28 07:53:58;;;;;;;22.90;14.23;;;;;;;6.42;100.00;153009.13;5101127;27;20455;-76
2024/02/28 07:56:25;;;;;;;25.27;15.50;;;;;;;6.47;100.00;153022.00;5094366;27;20846;-78
2024/02/28 07:58:51;;;;;;;20.77;15.30;;;;;;;6.53;100.00;153037.50;5113655;27;20440;-78
2024/02/28 08:01:18;;;;;;;22.10;15.60;;;;;;;6.52;100.00;153034.91;5097433;27;20489;-78
2024/02/28 08:03:45;;;;;;;24.97;17.27;;;;;;;6.54;100.00;153041.38;5086961;27;20463;-78
2024/02/28 08:06:13;;;;;;;25.10;16.17;;;;;;;6.59;100.00;153053.00;5124487;27;21123;-78
2024/02/28 08:08:40;;;;;;;20.27;14.90;;;;;;;6.58;100.00;153051.72;5089100;27;20788;-78
2024/02/28 08:11:06;;;;;;;21.57;15.03;;;;;;;6.60;100.00;153055.56;5112711;27;20466;-78
2024/02/28 08:13:33;;;;;;;23.50;15.73;;;;;;;6.58;100.00;153050.41;5114864;27;20470;-78
2024/02/28 08:16:00;;;;;;;22.43;15.57;;;;;;;6.57;100.00;153049.13;5114099;27;20455;-78
2024/02/28 08:18:27;;;;;;;22.47;15.60;;;;;;;6.57;100.00;153049.13;5092297;27;20451;-78
2024/02/28 08:20:57;;;;;;;24.77;16.97;;;;;;;6.60;100.00;153056.88;5092833;27;20471;-78
2024/02/28 08:23:26;;;;;;;21.67;15.43;;;;;;;6.55;100.00;153042.66;5084303;28;20443;-88
2024/02/28 08:25:52;;;;;;;21.30;17.33;;;;;;;6.50;100.00;153031.06;5115317;27;20474;-88
2024/02/28 08:28:19;;;;;;;23.40;16.13;;;;;;;6.51;100.00;153033.63;5114714;27;20474;-88
2024/02/28 08:30:46;;;;;;;19.50;15.40;;;;;;;6.55;100.00;153042.66;5098371;28;20462;-88
2024/02/28 08:33:13;;;;;;;24.53;16.77;;;;;;;6.55;100.00;153042.66;5110640;27;20451;-88
2024/02/28 08:35:39;;;;;;;22.70;15.70;;;;;;;6.53;100.00;153037.50;5095412;28;20505;-88
2024/02/28 08:38:06;;;;;;;21.67;17.13;;;;;;;6.53;100.00;153037.50;5087561;28;21025;-88
2024/02/28 08:40:36;;;;;;;23.07;15.67;;;;;;;6.57;100.00;153047.81;5074322;28;20441;-89
2024/02/28 08:43:03;;;;;;;23.90;17.57;;;;;;;6.56;100.00;153045.25;5094916;28;20443;-88
2024/02/28 08:45:30;;;;;;;26.07;18.20;;;;;;;6.57;100.00;153049.13;5073273;28;20463;-78
2024/02/28 08:48:01;;;;;;;26.60;17.37;;;;;;;6.57;100.00;153047.81;5111254;28;20481;-77
2024/02/28 08:50:27;;;;;;;23.77;17.10;;;;;;;6.58;100.00;153051.72;5111311;28;20539;-78
2024/02/28 08:52:54;;;;;;;26.77;17.37;;;;;;;6.60;100.00;153055.56;5112932;28;20512;-77
2024/02/28 08:55:21;;;;;;;24.83;16.00;;;;;;;6.55;100.00;153042.66;5112450;28;20501;-78
2024/02/28 08:57:49;;;;;;;27.60;16.60;;;;;;;6.56;100.00;153045.25;5113873;28;20448;-78
2024/02/28 09:00:17;;;;;;;23.23;17.07;;;;;;;6.56;100.00;153045.25;5096059;28;20479;-78
2024/02/28 09:02:44;;;;;;;24.40;16.80;;;;;;;6.54;100.00;153041.38;5110563;28;20470;-78
2024/02/28 09:05:10;;;;;;;21.23;15.90;;;;;;;6.52;100.00;153036.22;5109801;28;20444;-77
2024/02/28 09:07:37;;;;;;;26.50;17.60;;;;;;;6.51;100.00;153032.38;5113002;28;20462;-77
2024/02/28 09:10:04;;;;;;;24.67;16.17;;;;;;;6.51;100.00;153032.38;5095934;28;20444;-89
2024/02/28 09:12:31;;;;;;;26.07;17.50;;;;;;;6.57;100.00;153049.13;5094607;28;20796;-88
2024/02/28 09:15:00;;;;;;;23.33;16.60;;;;;;;6.58;100.00;153051.72;5113446;28;20856;-88
2024/02/28 09:17:26;;;;;;;24.93;14.70;;;;;;;6.55;100.00;153042.66;5101673;28;20494;-88
2024/02/28 09:19:53;;;;;;;23.23;17.67;;;;;;;6.60;100.00;153056.88;5102594;28;20443;-84
2024/02/28 09:22:21;;;;;;;21.87;16.63;;;;;;;6.62;100.00;153060.72;5119201;28;20482;-84
2024/02/28 09:24:47;;;;;;;26.10;16.77;;;;;;;6.62;100.00;153060.72;5103259;28;20993;-88
2024/02/28 09:27:18;;;;;;;22.43;15.70;;;;;;;6.63;100.00;153063.31;5092308;28;20483;-88
2024/02/28 09:29:44;;;;;;;22.30;15.00;;;;;;;6.66;100.00;153071.06;5080596;28;20460;-88
2024/02/28 09:32:14;;;;;;;20.03;14.57;;;;;;;6.66;100.00;153071.06;5076948;28;20455;-88
2024/02/28 09:34:41;;;;;;;19.93;15.77;;;;;;;6.67;100.00;153074.91;5111580;28;20440;-88
2024/02/28 09:37:07;;;;;;;24.93;15.90;;;;;;;6.70;100.00;153081.38;5102050;28;20461;-88
2024/02/28 09:39:34;;;;;;;23.03;16.33;;;;;;;6.77;100.00;153099.47;5121786;27;20837;-88
2024/02/28 09:42:01;;;;;;;24.20;15.17;;;;;;;6.81;100.00;153108.47;5100370;28;20465;-88
2024/02/28 09:44:27;;;;;;;20.20;14.17;;;;;;;6.79;100.00;153104.63;5113623;28;20443;-88
2024/02/28 09:46:54;;;;;;;22.10;14.87;;;;;;;6.74;100.00;153091.72;5093781;28;20475;-88
2024/02/28 09:49:23;;;;;;;23.77;15.63;;;;;;;6.73;99.68;153089.13;5116882;28;20510;-88
2024/02/28 09:51:50;;;;;;;19.40;14.53;;;;;;;6.71;99.94;153083.97;5083765;28;20454;-88
2024/02/28 09:54:17;;;;;;;21.87;14.87;;;;;;;6.72;99.84;153086.56;5112763;27;20793;-88
2024/02/28 09:56:44;;;;;;;21.93;15.20;;;;;;;6.74;99.58;153091.72;5096433;28;20453;-88
2024/02/28 09:59:12;;;;;;;20.07;14.80;;;;;;;6.72;98.87;153086.56;5094001;28;20456;-88
2024/02/28 10:01:44;;;;;;;23.80;14.50;;;;;;;6.71;99.08;153085.28;5112505;27;20507;-88
2024/02/28 10:04:12;;;;;;;16.73;12.13;;;;;;;6.73;98.56;153089.13;5111735;28;20458;-87
2024/02/28 10:06:41;;;;;;;20.60;14.37;;;;;;;6.73;98.47;153089.13;5105414;28;20842;-88
2024/02/28 10:09:09;;;;;;;19.80;13.27;;;;;;;6.74;97.99;153091.72;5112582;27;20491;-88
2024/02/28 10:11:36;;;;;;;21.00;14.00;;;;;;;6.73;98.04;153089.13;5081335;28;20463;-88
2024/02/28 10:14:03;;;;;;;17.30;12.00;;;;;;;6.75;98.59;153094.31;5099857;27;20829;-87
2024/02/28 10:16:30;;;;;;;18.60;12.83;;;;;;;6.80;98.14;153107.22;5107742;27;20451;-88
2024/02/28 10:18:56;;;;;;;20.73;13.73;;;;;;;6.83;97.48;153114.94;5081939;27;20451;-87
2024/02/28 10:21:23;;;;;;;18.40;12.70;;;;;;;6.87;97.39;153123.97;5095047;27;20503;-88
2024/02/28 10:23:51;;;;;;;17.17;12.20;;;;;;;6.94;98.04;153143.34;5105519;27;20458;-87
2024/02/28 10:26:18;;;;;;;18.73;12.27;;;;;;;6.97;97.67;153151.09;5115917;27;20479;-87
2024/02/28 10:28:45;;;;;;;19.30;13.20;;;;;;;6.95;96.76;153145.94;5096874;27;20459;-87
2024/02/28 10:31:12;;;;;;;16.20;11.70;;;;;;;6.99;95.36;153156.25;5113285;27;20539;-87
2024/02/28 10:33:38;;;;;;;18.93;12.60;;;;;;;7.03;96.54;153166.59;5114204;27;20448;-87
2024/02/28 10:36:06;;;;;;;17.43;12.60;;;;;;;7.07;97.33;153176.91;5084195;28;20459;-88
2024/02/28 10:38:33;;;;;;;17.50;11.83;;;;;;;7.08;96.03;153178.19;5097716;27;20465;-88
2024/02/28 10:41:02;;;;;;;19.00;13.87;;;;;;;7.08;94.64;153178.19;5100312;27;20455;-88
2024/02/28 10:43:29;;;;;;;19.63;11.10;;;;;;;7.05;94.38;153170.44;5110113;28;21030;-88
2024/02/28 10:45:57;;;;;;;17.40;13.53;;;;;;;6.98;94.08;153152.38;5123075;27;20464;-88
2024/02/28 10:48:25;;;;;;;18.67;12.50;;;;;;;6.95;94.58;153145.94;5115259;27;20436;-88
2024/02/28 10:50:52;;;;;;;20.00;12.63;;;;;;;6.93;95.09;153139.47;5079596;28;20551;-88
2024/02/28 10:53:22;;;;;;;21.07;13.50;;;;;;;6.89;94.59;153130.44;5120914;27;20496;-88
2024/02/28 10:55:49;;;;;;;18.43;13.37;;;;;;;6.88;94.88;153127.88;5084356;27;20455;-87
2024/02/28 10:58:17;;;;;;;19.60;13.00;;;;;;;6.91;95.10;153134.34;5104474;28;20465;-88
2024/02/28 11:00:45;;;;;;;19.10;12.30;;;;;;;6.89;95.34;153130.44;5065539;28;20475;-86
2024/02/28 11:03:12;;;;;;;16.40;11.63;;;;;;;6.93;95.51;153139.47;5100761;28;20452;-87
2024/02/28 11:05:40;;;;;;;20.07;12.70;;;;;;;6.98;95.11;153152.38;5075333;28;20902;-87
2024/02/28 11:08:09;;;;;;;20.73;13.27;;;;;;;6.96;94.46;153148.53;5094924;27;22274;-88
2024/02/28 11:10:36;;;;;;;20.63;13.87;;;;;;;7.00;94.54;153157.53;5109157;28;20448;-87